Dulles, VA (20189)

11:23 AM EST on December 04, 2016 (GMT -0500)
Sterling Park | | Change Station

Elev 348 ft 38.99 °N, 77.41 °W | Updated 14 seconds ago

Overcast
Overcast
43.3 °F
Feels Like 43 °F
N
0.9
Wind Variable Wind from NNE
Gusts 2.5 mph

Today
High -- | Low -- °F
--% Chance of Precip.
Yesterday
High -- | Low -- °F
Precip. -- in
Pressure 30.28 in
Visibility 10.0 miles
Clouds Mostly Cloudy 15000 ft
Overcast 20000 ft
Windchill 43 °F
Dew Point 27 °F
Humidity 53%
Rainfall 0.00 in
Snow Depth Not available.
7:12 AM 4:47 PM
Waxing Crescent, 23% visible
METAR KIAD 041552Z 01004KT 10SM BKN150 OVC200 06/M02 A3028 RMK AO2 SLP253 T00561022
Pressure 30.28 in
Visibility 10.0 miles
Clouds Mostly Cloudy 15000 ft
Overcast 20000 ft
Windchill 43 °F
Dew Point 27 °F
Humidity 53%
Rainfall 0.00 in
Snow Depth Not available.
7:12 AM 4:47 PM
Waxing Crescent, 23% visible
METAR KIAD 041552Z 01004KT 10SM BKN150 OVC200 06/M02 A3028 RMK AO2 SLP253 T00561022

10-Day Weather Forecast

Almanac

Astronomy

Dec. 04, 2016 Rise Set
Actual Time
Civil Twilight
Nautical Twilight
Astronomical Twilight
Moon
Length of Visible Light
Length of Day
Tomorrow will be .
, % of the Moon is Illuminated

Today's Extremes

State Highs State Lows

Community

WunderPhotos

Upload Photos

1,955,617 photos uploaded!

WunderBlog® & News

Nearby

Air Quality

  Air Quality AQ Index Pollutant
Not available.

Snow Depth

Station Depth Elevation

Earthquake Activity

City Distance Mag. Time & Date
Minimum magnitude displayed is 2.5.

Coastal Water Temperatures

Place Temperature

Stations

Nearby Weather Stations

Station Location Temp. Windchill Dew Point Humidity Wind Precip. Elev Updated Type
                   

Watches & Warnings

There are currently no watches in effect.